x

Cal Poly Pier, Ca (cpxc1) Weather Station

4:52pm - Fri 2nd Dec 2016 All times are PST. -8 hours from GMT.

  • Wind
    8mph, 10mph gusts
  • Air Temp 58°f
  • Sea Pressure 1020.6mb
  • Cal Poly Pier, Ca
  • Cal Poly Pier, Ca

More Historic Weather Station data

Upgrade to MSW Pro to gain access to the past 30 days of data for over 8000 Wavebouys and Weather Stations around the globe.

Join Pro

Comparision Forecast

View Surf forecast
   
Fri 12/02 4:52pm 8 10 mph 1020.6mb 58f
4:38pm 18 21 mph 1020.5mb 59f
4:25pm 15 17 mph 1020.5mb 59f
4:21pm 11 15 mph 1020.5mb 59f
4:11pm 8 10 mph 1020.3mb 60f
4:07pm 8 10 mph 1020.6mb 60f
3:26pm 15 17 mph 1020.3mb 60f
3:12pm 11 14 mph 1020.5mb 60f
1:28pm 16 20 mph 1020.5mb 59f
1:15pm 11 14 mph 1020.1mb 59f
1:01pm 13 17 mph 1020.3mb 59f
12:47pm 9 11 mph 1020.6mb 59f
12:43pm 2 5 mph 1020.6mb 59f
12:33pm 2
mph
1020.8mb 58f
12:30pm 5 6 mph 1020.8mb 58f
12:16pm 7 8 mph 1020.8mb 58f
12:02pm 10 14 mph 1020.8mb 57f
11:48am 11 14 mph 1021mb 57f
11:35am 9 11 mph 1021.3mb 57f
11:31am 9 11 mph 1021.3mb 57f
11:17am 10 13 mph 1021.5mb 56f
11:03am 10 11 mph 1021.5mb 56f
10:50am 11 17 mph 1021.7mb 55f
10:36am 18 22 mph 1021.7mb 55f
10:32am 14 17 mph 1021.7mb 55f
10:22am 11 14 mph 1021.9mb 54f
10:18am 13 15 mph 1022mb 54f
10:05am 6 7 mph 1022mb 54f
9:51am 10 13 mph 1021.9mb 54f
9:37am 9 14 mph 1021.9mb 53f
9:23am 7 10 mph 1021.9mb 53f
9:20am 2 5 mph 1022mb 53f
9:10am  -  2 mph 1021.9mb 53f
9:06am 1 2 mph 1021.9mb 53f
8:52am 1 2 mph 1021.7mb 53f
8:38am  -  1 mph 1021.3mb 54f
8:25am  -  1 mph 1021.3mb 52f
8:11am  -  2 mph 1021.3mb 50f
8:07am 1 3 mph 1021.3mb 50f
7:57am 2 3 mph 1021.2mb 49f
7:53am 3 5 mph 1021.2mb 48f
7:40am 3 5 mph 1021mb 49f
7:26am 8 10 mph 1020.8mb 46f
7:12am 8 9 mph 1020.6mb 45f
6:58am 13 14 mph 1020.5mb 44f
6:55am 13 14 mph 1020.1mb 44f
6:45am 13 14 mph 1020mb 43f
6:41am 11 14 mph 1020mb 43f
6:27am 11 13 mph 1020mb 44f
6:13am 11 14 mph 1020mb 44f
6:00am 14 15 mph 1019.6mb 45f
5:46am 13 14 mph 1019.6mb 45f
5:42am 11 13 mph 1019.6mb 45f
5:32am 9 10 mph 1019.6mb 45f
5:28am 9 10 mph 1019.6mb 45f
5:15am 8 10 mph 1019.4mb 44f
5:01am 9 10 mph 1019.3mb 44f
4:47am 10 11 mph 1019.3mb 45f
4:33am 6 8 mph 1019.3mb 45f
4:30am 3 6 mph 1019.3mb 46f
4:20am 6 7 mph 1019.1mb 46f
4:16am 5 6 mph 1019.3mb 46f
4:02am 6 8 mph 1019.3mb 45f
3:48am 3 5 mph 1019.3mb 46f
3:35am 3 5 mph 1019.4mb 47f
3:21am 2 3 mph 1019.3mb 46f
3:17am 2 5 mph 1019.3mb 46f
3:07am 2 3 mph 1019.3mb 47f
3:03am 2 3 mph 1019.3mb 48f
2:50am 3 6 mph 1019.3mb 47f
2:36am 2
mph
1019.3mb 47f
2:22am 3 6 mph 1019.4mb 47f
2:08am 5
mph
1019.4mb 48f
1:55am 2
mph
1019.4mb 47f
1:51am 1
mph
1019.4mb 48f
1:37am  -  1 mph 1019.4mb 48f
1:23am 2 3 mph 1019.4mb 49f
1:10am 2 3 mph 1019.4mb 49f
12:56am 2 3 mph 1019.4mb 50f
12:52am 2 3 mph 1019.4mb 50f
12:42am  -  1 mph 1019.4mb 50f
12:38am  -  1 mph 1019.4mb 50f
12:25am  -  1 mph 1019.4mb 51f
12:11am 5 6 mph 1019.4mb 52f
Thu 12/01 11:57pm 7 8 mph 1019.4mb 53f
11:43pm 9 11 mph 1019.4mb 53f
11:40pm 13 15 mph 1019.6mb 53f
11:30pm 14 16 mph 1019.4mb 54f
11:26pm 11 14 mph 1019.4mb 53f
11:12pm 14 16 mph 1019.4mb 54f
10:58pm 9 10 mph 1019.3mb 52f
10:45pm 5 6 mph 1019.3mb 52f
10:31pm 11 14 mph 1018.9mb 53f
10:27pm 11 14 mph 1018.9mb 53f
10:17pm 11 14 mph 1018.9mb 53f
10:13pm 11 13 mph 1018.9mb 54f
10:00pm 11 13 mph 1019.3mb 53f
9:46pm 9 13 mph 1019.1mb 52f
9:32pm 10 14 mph 1018.9mb 53f
9:18pm 10 11 mph 1018.9mb 52f
9:15pm 11 13 mph 1018.9mb 52f
9:05pm 9 11 mph 1019.1mb 52f
9:01pm 6 7 mph 1019.3mb 51f
8:47pm 6 8 mph 1019.3mb 52f
8:33pm 5 6 mph 1019.1mb 52f
8:20pm 3 5 mph 1019.1mb 52f
8:06pm 5
mph
1018.9mb 51f
8:02pm 3 5 mph 1018.9mb 51f
7:52pm 2
mph
1019.1mb 52f
7:48pm 2 3 mph 1019.1mb 52f
7:35pm  -  1 mph 1019.1mb 53f
7:21pm 3 5 mph 1018.9mb 53f
7:07pm 2 3 mph 1018.9mb 54f
6:50pm 6
mph
1018.4mb 54f
6:40pm 7 8 mph 1018.4mb 54f
6:36pm 7 8 mph 1018.4mb 54f
6:22pm 3
mph
1018.4mb 54f
6:08pm 2 3 mph 1018.4mb 55f
5:27pm 9 11 mph 1017.9mb 56f
5:10pm 11 13 mph 1017.9mb 56f
4:56pm 9 10 mph 1017.7mb 57f
4:42pm 6 7 mph 1017.5mb 58f
4:28pm 10 11 mph 1017.5mb 58f
4:25pm 10 11 mph 1017.5mb 59f
4:15pm 10 13 mph 1017.5mb 60f
4:11pm 7 8 mph 1017.4mb 60f
3:57pm 5 7 mph 1017.2mb 60f
3:43pm 10 13 mph 1017.4mb 60f
3:30pm 8 11 mph 1017.2mb 60f
3:16pm 9 10 mph 1017.2mb 60f
3:12pm 9 14 mph 1017.2mb 60f
3:02pm 10 14 mph 1017.2mb 60f
2:58pm 11 14 mph 1017.2mb 60f
2:45pm 9 13 mph 1017mb 60f
2:31pm 16 20 mph 1017mb 60f
2:17pm 6 8 mph 1017.2mb 60f
2:13pm 10 15 mph 1017mb 60f
2:03pm 8 14 mph 1017mb 60f
2:00pm 9 14 mph 1017mb 60f
1:46pm 11 14 mph 1017mb 60f
1:32pm 11 17 mph 1016.9mb 60f
1:18pm 9 13 mph 1017mb 60f
1:05pm 8 11 mph 1017mb 60f
1:01pm 10 13 mph 1017.4mb 60f
12:51pm 13 15 mph 1017.4mb 59f
12:47pm 10 14 mph 1017.4mb 59f
12:33pm 15 18 mph 1017.5mb 59f
12:20pm 15 21 mph 1017.9mb 59f
12:06pm 13 17 mph 1018.1mb 59f
11:52am 14 18 mph 1017.9mb 59f
11:48am 15 20 mph 1018.1mb 59f
11:07am 10 15 mph 1018.6mb 59f
10:53am 14 18 mph 1018.1mb 59f
9:55am 8 10 mph 1018.9mb 58f
9:41am 8 11 mph 1018.9mb 58f
9:27am 8 10 mph 1018.9mb 57f
9:23am 6 9 mph 1018.8mb 57f
9:13am 8 9 mph 1018.8mb 56f
9:10am 8 11 mph 1018.8mb 56f
8:56am 11 14 mph 1018.9mb 55f
8:42am 15 17 mph 1018.8mb 55f
8:28am 14 17 mph 1018.6mb 55f
8:15am 13 16 mph 1018.6mb 55f
8:11am 10 14 mph 1018.6mb 55f
8:01am 13 16 mph 1018.4mb 55f
7:57am 11 15 mph 1018.4mb 55f
7:43am 10 13 mph 1018.2mb 55f
7:30am 8 10 mph 1018.1mb 54f
7:16am 9 11 mph 1018.1mb 54f
7:02am 18 22 mph 1017.7mb 55f
6:58am 18 24 mph 1017.9mb 55f
6:48am 15 18 mph 1017.7mb 55f
6:45am 14 16 mph 1017.5mb 55f
6:31am 11 14 mph 1017.5mb 55f
6:17am 9 10 mph 1017.5mb 55f
6:03am 9 11 mph 1017.4mb 55f
5:50am 7 9 mph 1017.4mb 55f
5:46am 9 10 mph 1017.4mb 55f
5:36am 14 15 mph 1016.9mb 55f
5:32am 14 17 mph 1017mb 55f
5:18am 10 15 mph 1017mb 55f
5:05am 7 8 mph 1016.9mb 55f
4:51am 9 13 mph 1016.9mb 55f
4:37am 3 5 mph 1016.5mb 55f
4:33am 5 6 mph 1016.5mb 55f
4:23am 7 8 mph 1016.5mb 56f
4:20am 6 7 mph 1016.3mb 56f
4:06am 6 7 mph 1016.5mb 56f
3:52am 14 16 mph 1016.3mb 56f
3:38am 14 17 mph 1016mb 56f
3:25am 3 5 mph 1016.7mb 55f
3:21am 2 6 mph 1016.9mb 54f
3:11am  -  1 mph 1016.9mb 53f
3:07am 2
mph
1016.9mb 53f
2:53am  -  1 mph 1016.9mb 51f
2:40am 2
mph
1017mb 50f
2:26am 2 3 mph 1017.2mb 50f
2:12am 3 6 mph 1017.2mb 50f
2:08am 3 5 mph 1017mb 50f
1:58am 2
mph
1017.2mb 51f
1:55am  -  1 mph 1017.2mb 51f
1:41am 1 2 mph 1017.4mb 51f
1:27am 5 6 mph 1017.2mb 50f
1:13am 3 5 mph 1017.2mb 51f
1:00am 2 5 mph 1017.4mb 51f
12:56am 5 6 mph 1017.5mb 51f
12:46am 3 5 mph 1017.5mb 52f
12:42am 3 5 mph 1017.5mb 52f
12:28am 6
mph
1017.5mb 52f
12:15am 5 6 mph 1017.7mb 52f
12:01am 1 2 mph 1017.9mb 52f
Wed 11/30 11:47pm 3
mph
1017.9mb 51f
11:43pm 1 3 mph 1017.7mb 52f
11:33pm  -  1 mph 1017.7mb 52f
11:30pm  -  1 mph 1017.7mb 52f
11:16pm  -  1 mph 1017.5mb 53f
11:02pm 2
mph
1017.5mb 53f
10:48pm 3 5 mph 1017.7mb 54f
10:35pm 2 3 mph 1017.9mb 52f
10:21pm 3 6 mph 1017.9mb 52f
10:17pm 6 7 mph 1017.9mb 51f
10:03pm 5 6 mph 1017.9mb 51f
9:50pm 3 5 mph 1018.2mb 52f
9:36pm 3
mph
1018.2mb 52f
9:22pm 5 6 mph 1017.9mb 51f
9:08pm 6
mph
1017.7mb 51f
9:05pm 7 8 mph 1017.7mb 51f
8:55pm 6 8 mph 1017.7mb 51f
8:51pm 2 5 mph 1017.7mb 52f
8:37pm 2 5 mph 1017.7mb 52f
8:23pm 2 3 mph 1017.5mb 52f
8:10pm 2
mph
1017.4mb 52f
7:56pm 5 6 mph 1017.4mb 52f
7:52pm 3 5 mph 1017.4mb 52f
7:42pm 8
mph
1017.4mb 51f
7:38pm 9 10 mph 1017.4mb 51f
7:25pm 8
mph
1017.4mb 52f
7:11pm 6
mph
1017.4mb 51f
6:57pm 6
mph
1017.4mb 52f
6:43pm 2
mph
1017.4mb 52f
6:40pm 5 6 mph 1017.4mb 52f
6:30pm 3 5 mph 1017.2mb 52f
6:26pm 5 6 mph 1017.2mb 53f
6:12pm 2
mph
1017.2mb 54f
5:58pm 3 5 mph 1017.2mb 53f
5:45pm 5 6 mph 1017.2mb 53f
5:31pm 3 5 mph 1017.2mb 55f
5:27pm 5 6 mph 1017.2mb 55f
5:17pm 3 5 mph 1017.2mb 55f
5:13pm 1 2 mph 1017.2mb 55f
5:00pm 5 6 mph 1017.4mb 56f
4:46pm 7 8 mph 1017.4mb 56f
4:32pm 9 10 mph 1017.4mb 57f
4:18pm 8 9 mph 1017.4mb 57f
4:15pm 10 11 mph 1017.4mb 57f
4:05pm 15 17 mph 1017.5mb 57f
4:01pm 14 17 mph 1017.5mb 58f
3:47pm 14 15 mph 1017.5mb 58f
1:53pm 13 15 mph 1017.7mb 59f
1:50pm 14 16 mph 1017.5mb 60f
1:40pm 10 13 mph 1017.7mb 60f
1:36pm 10 13 mph 1017.7mb 60f
1:22pm 9 14 mph 1018.1mb 60f
1:08pm 3 5 mph 1018.2mb 57f
12:55pm 3 5 mph 1018.4mb 56f
12:41pm 6 7 mph 1018.4mb 56f
12:37pm 5 6 mph 1018.4mb 56f
12:23pm 3 5 mph 1018.8mb 57f
12:10pm 2
mph
1018.8mb 56f
11:56am 6 8 mph 1018.9mb 55f
11:42am 10 11 mph 1019.3mb 54f
11:28am 8 9 mph 1019.6mb 56f
11:25am 8
mph
1019.8mb 56f
11:11am 7 10 mph 1020mb 56f
10:57am 7 8 mph 1020.1mb 56f
10:43am 8 10 mph 1020.3mb 56f
10:30am 1 2 mph 1020.3mb 57f
10:16am 5 6 mph 1020.8mb 55f
10:12am 5 6 mph 1020.8mb 55f
9:58am 6 7 mph 1020.8mb 54f
9:45am 6 9 mph 1021mb 54f
9:31am 3
mph
1021mb 54f
9:17am  -  1 mph 1021mb 53f
9:03am  -  1 mph 1021mb 53f
9:00am  -  1 mph 1020.8mb 52f
8:46am  -  1 mph 1021mb 50f
8:32am 6 7 mph 1021.3mb 48f
8:18am 9 11 mph 1021.2mb 47f
8:05am 9 10 mph 1021mb 45f
7:51am 9 10 mph 1021.2mb 44f
7:47am 8 9 mph 1021.2mb 45f
7:33am 6 7 mph 1021mb 45f
7:20am 7 8 mph 1020.8mb 44f
7:06am 7 8 mph 1020.6mb 43f
6:52am 7 8 mph 1020.6mb 44f
6:38am 8
mph
1020.6mb 44f
6:07am 8
mph
1020.3mb 44f
5:53am 9 10 mph 1020.1mb 44f
5:40am 8 9 mph 1020mb 45f
5:26am 3 6 mph 1020mb 46f
5:22am 5 6 mph 1020.1mb 45f
5:08am 10 11 mph 1020mb 45f
4:55am 9 10 mph 1020.1mb 46f
4:41am 8 9 mph 1020.1mb 46f
4:27am 5 6 mph 1020mb 47f
4:13am 7 8 mph 1020mb 47f
4:10am 5 6 mph 1019.8mb 47f
4:00am 9 10 mph 1020mb 46f
3:56am 8 10 mph 1019.8mb 46f
3:42am 10 11 mph 1020mb 47f
3:28am 9 11 mph 1020.3mb 47f
3:15am 11 13 mph 1020.5mb 47f
3:01am 9 11 mph 1020.6mb 46f
2:57am 9 10 mph 1020.6mb 46f
2:47am 8 9 mph 1020.8mb 47f
2:43am 9 10 mph 1020.6mb 47f
2:30am 8 10 mph 1020.6mb 47f
2:16am 8
mph
1020.6mb 47f
2:02am 9 10 mph 1020.8mb 47f
1:48am 10 13 mph 1020.6mb 47f
1:45am 8 10 mph 1020.6mb 47f
1:34am 8 9 mph 1020.8mb 48f
1:31am 7 8 mph 1020.8mb 48f
1:17am 8 10 mph 1020.3mb 48f
1:03am 8 10 mph 1020.1mb 48f
12:49am 8 10 mph 1020.5mb 47f
12:36am 8 10 mph 1020.5mb 48f
12:32am 7 8 mph 1020.5mb 48f
12:22am 7 8 mph 1020.3mb 48f
12:18am 6
mph
1020.3mb 48f
12:04am 3 6 mph 1020.5mb 49f
Tue 11/29 11:51pm 8 9 mph 1020.3mb 49f
11:37pm 7 8 mph 1020.1mb 49f
11:23pm 3 6 mph 1020.1mb 50f
11:19pm 6 7 mph 1020.1mb 50f
11:09pm 5 7 mph 1019.8mb 50f
11:06pm 7 8 mph 1019.6mb 50f
10:52pm 7 8 mph 1019.4mb 50f
10:38pm 5 6 mph 1019.8mb 51f
10:24pm 7 8 mph 1019.8mb 51f
10:11pm 7 8 mph 1019.6mb 51f
10:07pm 8 9 mph 1019.6mb 52f
9:57pm 6 7 mph 1019.6mb 51f
9:53pm 3 5 mph 1019.6mb 51f
9:39pm 6 7 mph 1019.6mb 52f
9:26pm 9 10 mph 1019.4mb 53f
9:12pm 8 9 mph 1019.3mb 53f
8:58pm 9 10 mph 1019.1mb 54f
8:54pm 7 8 mph 1019.3mb 53f
8:44pm 5 6 mph 1019.1mb 55f
8:41pm 2 5 mph 1019.1mb 56f
8:27pm 5
mph
1019.1mb 56f
8:13pm 6 7 mph 1018.8mb 55f
7:59pm 6 8 mph 1018.4mb 56f
7:46pm 7 10 mph 1018.1mb 56f
7:32pm 14 15 mph 1017.9mb 57f
7:28pm 13 14 mph 1017.9mb 57f
7:14pm 15 16 mph 1017.7mb 57f
7:01pm 15 18 mph 1017.9mb 57f
6:47pm 16 18 mph 1017.9mb 58f
6:33pm 17 21 mph 1018.2mb 59f
6:19pm 10 13 mph 1018.1mb 58f
6:16pm 15 20 mph 1017.9mb 58f
6:06pm 14 17 mph 1017.9mb 58f
6:02pm 15 18 mph 1017.9mb 59f
5:48pm 6 9 mph 1017.9mb 58f
5:34pm 14 16 mph 1017.7mb 59f
5:21pm 6 8 mph 1018.1mb 58f
5:07pm 7 8 mph 1018.1mb 59f
5:03pm 8 10 mph 1018.1mb 59f
4:53pm 2 5 mph 1018.1mb 59f
4:49pm 3 5 mph 1017.9mb 59f
4:36pm 5 6 mph 1017.9mb 60f
4:22pm 6 7 mph 1017.9mb 61f
4:08pm 7 9 mph 1017.7mb 61f
3:54pm 10 11 mph 1018.1mb 62f
3:51pm 6 8 mph 1017.9mb 62f
3:41pm 6 8 mph 1017.9mb 62f
3:23pm 5 7 mph 1017.7mb 63f
3:09pm 8 10 mph 1017.9mb 62f
2:56pm 6 9 mph 1017.7mb 62f
2:42pm 9 13 mph 1017.4mb 62f
2:38pm 6 10 mph 1017.5mb 63f
2:28pm 13 16 mph 1017.7mb 62f
2:24pm 9 11 mph 1017.7mb 63f
2:11pm 7 9 mph 1017.4mb 63f
1:57pm 5 6 mph 1017.4mb 63f
1:43pm 5 9 mph 1017.7mb 63f
1:29pm 10 14 mph 1017.7mb 62f
1:26pm 6 9 mph 1017.7mb 62f
1:16pm 10 13 mph 1017.7mb 62f
1:12pm 9 10 mph 1017.9mb 62f
12:58pm 11 15 mph 1017.7mb 62f
12:44pm 10 11 mph 1018.2mb 61f
12:31pm 8 11 mph 1018.4mb 61f
12:17pm 11 17 mph 1018.1mb 60f
12:13pm 11 15 mph 1018.2mb 60f
12:03pm 6 8 mph 1018.2mb 61f
11:59am 10 11 mph 1018.4mb 60f
11:46am 13 16 mph 1018.6mb 60f
11:32am 7 8 mph 1018.6mb 60f
11:18am 8 9 mph 1018.9mb 59f
11:04am 5 6 mph 1018.9mb 59f
11:01am 11 14 mph 1018.9mb 59f
10:51am 6 7 mph 1019.3mb 59f
10:47am 6 8 mph 1019.3mb 58f
10:33am 7 8 mph 1019.4mb 58f
10:19am 8 10 mph 1019.4mb 58f
10:06am 9 15 mph 1019.4mb 57f
9:52am 9 11 mph 1019.4mb 57f
9:48am 17 21 mph 1019.3mb 56f
9:38am 16 22 mph 1019.4mb 56f
9:34am 13 17 mph 1019.3mb 56f
9:21am 11 14 mph 1019.1mb 55f
9:07am 14 17 mph 1018.9mb 55f
8:53am 17 25 mph 1018.8mb 55f
8:39am 20 22 mph 1018.6mb 55f
8:36am 20 25 mph 1018.8mb 54f
8:26am 22 25 mph 1018.6mb 54f
8:22am 21 24 mph 1018.6mb 54f
8:08am 21 24 mph 1018.6mb 53f
7:54am 22 24 mph 1018.6mb 54f
7:41am 10 14 mph 1018.4mb 54f
7:27am 14 15 mph 1018.1mb 53f
7:23am 15 17 mph 1018.2mb 53f
7:13am 17 20 mph 1018.1mb 52f
7:09am 17 21 mph 1018.1mb 52f
6:56am 14 17 mph 1018.1mb 52f
6:42am 13 17 mph 1018.1mb 52f
6:28am 6 7 mph 1018.2mb 49f
6:14am 6 8 mph 1018.1mb 49f
6:11am 9 10 mph 1018.1mb 49f
6:01am 6 8 mph 1018.1mb 49f
5:57am 7 8 mph 1018.1mb 49f
5:43am 7 8 mph 1017.9mb 50f
5:29am 7 8 mph 1017.9mb 47f
5:16am 7 9 mph 1017.7mb 47f
5:02am 7 8 mph 1017.7mb 47f
4:58am 7 8 mph 1017.7mb 47f
4:48am 6 7 mph 1017.7mb 48f
4:44am 7 8 mph 1017.7mb 48f
4:31am 7 8 mph 1017.5mb 48f
4:17am 3 6 mph 1017.5mb 49f
4:03am 6 7 mph 1017.4mb 49f
3:49am 5 6 mph 1017.4mb 50f
3:46am 6 7 mph 1017.4mb 50f
3:36am 5 6 mph 1017.4mb 51f
3:32am 6
mph
1017.4mb 51f
3:18am 7 8 mph 1017.2mb 52f
3:04am 3 5 mph 1017.2mb 51f
2:51am 3
mph
1017.2mb 51f
2:37am 2 5 mph 1017mb 51f
2:33am  -  1 mph 1017mb 51f
2:23am 1 3 mph 1017mb 51f
2:19am 1 2 mph 1017mb 51f
2:06am 2
mph
1016.9mb 51f
1:52am  -  1 mph 1016.9mb 51f
1:38am 3 5 mph 1016.9mb 51f